Rhapsody Of The Seas — C6UA2 — position and weather

sailwx.info

Track history (hours):
 
Tides and Currents Weather Stations Pressure Air Temp Water Temp Dewpoint Dewpoint Depression Visibility Wind Speed Wind Dir Waves Ship Positions

Rhapsody Of The Seas

Last reported at 2016-Dec-05 22:31 UTC. Time now 2016-Dec-08 05:59 UTC.
Position N 20°30' W 087°00'.

Type: Passenger vessel. MMSI: 311805000.

Date/timePositionNaut miles runAvg speedWind from/ knotsBaromVisibWave heightAir tempDewpointWater temp
2016-Dec-05 22:31N 20°30' W 087°00'3 2.7
2016-Dec-05 21:32N 20°31' W 086°57'0 0.0
2016-Dec-05 20:29N 20°31' W 086°57'0 0.0
2016-Dec-05 19:32N 20°31' W 086°57'0 0.0
2016-Dec-05 18:32N 20°31' W 086°57'0 0.0
2016-Dec-05 17:29N 20°31' W 086°57'0 0.0
2016-Dec-05 16:32N 20°31' W 086°57'0 0.0
2016-Dec-05 15:32N 20°31' W 086°57'0 0.0
2016-Dec-05 14:32N 20°31' W 086°57'0 0.0
2016-Dec-05 13:32N 20°31' W 086°57'0 0.0
2016-Dec-05 12:32N 20°31' W 086°57'2 2.2
2016-Dec-05 11:33N 20°33' W 086°57'48216.4
2016-Dec-04 06:04N 27°36' W 082°44'814.8
2016-Dec-04 05:33N 27°39' W 082°36'1312.9
2016-Dec-04 04:34N 27°49' W 082°27'8 7.5
2016-Dec-04 03:34N 27°56' W 082°27'0 0.1
2016-Dec-04 02:33N 27°57' W 082°27'0 0.0
2016-Dec-04 01:33N 27°57' W 082°27'0 0.0
2016-Dec-04 00:33N 27°57' W 082°27'0 0.0
2016-Dec-03 23:33N 27°57' W 082°27'0 0.0
2016-Dec-03 22:33N 27°57' W 082°27'0 0.0
2016-Dec-03 21:33N 27°57' W 082°27'0 0.0
2016-Dec-03 20:33N 27°57' W 082°27'6 5.8
2016-Dec-03 19:33N 27°51' W 082°27'1413.7
2016-Dec-03 18:31N 27°39' W 082°36'195 9.6
2016-Dec-02 22:08N 25°22' W 080°02'1220.2
2016-Dec-02 21:33N 25°34' W 080°01'1413.8
2016-Dec-02 20:34N 25°46' W 080°08'3 2.5
2016-Dec-02 19:33N 25°47' W 080°11'0 0.0
2016-Dec-02 18:30N 25°47' W 080°11'0 0.0
2016-Dec-02 17:33N 25°47' W 080°11'0 0.0
2016-Dec-02 16:33N 25°47' W 080°11'0 0.0
2016-Dec-02 15:33N 25°47' W 080°11'0 0.0
2016-Dec-02 14:33N 25°47' W 080°11'0 0.0
2016-Dec-02 13:33N 25°47' W 080°11'0 0.0
2016-Dec-02 12:33N 25°47' W 080°11'0 0.0
2016-Dec-02 11:33N 25°47' W 080°11'0 0.0
2016-Dec-02 10:33N 25°47' W 080°11'0 0.0
2016-Dec-02 09:33N 25°47' W 080°11'1 1.1
2016-Dec-02 08:33N 25°46' W 080°10'7 7.4
2016-Dec-02 07:33N 25°47' W 080°01'1212.1
2016-Dec-02 06:34N 25°52' W 079°49'  
Track history (hours):
 
Tides and Currents Weather Stations Pressure Air Temp Water Temp Dewpoint Dewpoint Depression Visibility Wind Speed Wind Dir Waves Ship Positions

Rhapsody Of The Seas

Last reported at 2016-Dec-05 22:31 UTC. Time now 2016-Dec-08 05:59 UTC.
Position N 20°30' W 087°00'.

Type: Passenger vessel. MMSI: 311805000.

Date/timePositionNaut miles runAvg speedWind from/ knotsBaromVisibWave heightAir tempDewpointWater temp
2016-Dec-05 22:31N 20°30' W 087°00'3 2.7
2016-Dec-05 21:32N 20°31' W 086°57'0 0.0
2016-Dec-05 20:29N 20°31' W 086°57'0 0.0
2016-Dec-05 19:32N 20°31' W 086°57'0 0.0
2016-Dec-05 18:32N 20°31' W 086°57'0 0.0
2016-Dec-05 17:29N 20°31' W 086°57'0 0.0
2016-Dec-05 16:32N 20°31' W 086°57'0 0.0
2016-Dec-05 15:32N 20°31' W 086°57'0 0.0
2016-Dec-05 14:32N 20°31' W 086°57'0 0.0
2016-Dec-05 13:32N 20°31' W 086°57'0 0.0
2016-Dec-05 12:32N 20°31' W 086°57'2 2.2
2016-Dec-05 11:33N 20°33' W 086°57'48216.4
2016-Dec-04 06:04N 27°36' W 082°44'814.8
2016-Dec-04 05:33N 27°39' W 082°36'1312.9
2016-Dec-04 04:34N 27°49' W 082°27'8 7.5
2016-Dec-04 03:34N 27°56' W 082°27'0 0.1
2016-Dec-04 02:33N 27°57' W 082°27'0 0.0
2016-Dec-04 01:33N 27°57' W 082°27'0 0.0
2016-Dec-04 00:33N 27°57' W 082°27'0 0.0
2016-Dec-03 23:33N 27°57' W 082°27'0 0.0
2016-Dec-03 22:33N 27°57' W 082°27'0 0.0
2016-Dec-03 21:33N 27°57' W 082°27'0 0.0
2016-Dec-03 20:33N 27°57' W 082°27'6 5.8
2016-Dec-03 19:33N 27°51' W 082°27'1413.7
2016-Dec-03 18:31N 27°39' W 082°36'195 9.6
2016-Dec-02 22:08N 25°22' W 080°02'1220.2
2016-Dec-02 21:33N 25°34' W 080°01'1413.8
2016-Dec-02 20:34N 25°46' W 080°08'3 2.5
2016-Dec-02 19:33N 25°47' W 080°11'0 0.0
2016-Dec-02 18:30N 25°47' W 080°11'0 0.0
2016-Dec-02 17:33N 25°47' W 080°11'0 0.0
2016-Dec-02 16:33N 25°47' W 080°11'0 0.0
2016-Dec-02 15:33N 25°47' W 080°11'0 0.0
2016-Dec-02 14:33N 25°47' W 080°11'0 0.0
2016-Dec-02 13:33N 25°47' W 080°11'0 0.0
2016-Dec-02 12:33N 25°47' W 080°11'0 0.0
2016-Dec-02 11:33N 25°47' W 080°11'0 0.0
2016-Dec-02 10:33N 25°47' W 080°11'0 0.0
2016-Dec-02 09:33N 25°47' W 080°11'1 1.1
2016-Dec-02 08:33N 25°46' W 080°10'7 7.4
2016-Dec-02 07:33N 25°47' W 080°01'1212.1
2016-Dec-02 06:34N 25°52' W 079°49'  

Dump ship's entire track history